sensor_id;sensor_type;location;lat;lon;timestamp;P1;durP1;ratioP1;P2;durP2;ratioP2
40815;SDS011;26535;48.788;9.214;2023-04-03T05:02:10;7.05;;;2.47;;
40815;SDS011;26535;48.788;9.214;2023-04-03T05:04:38;5.53;;;2.38;;
40815;SDS011;26535;48.788;9.214;2023-04-03T05:07:10;4.45;;;2.40;;
40815;SDS011;26535;48.788;9.214;2023-04-03T05:09:37;4.78;;;2.42;;
40815;SDS011;26535;48.788;9.214;2023-04-03T05:12:03;7.05;;;2.30;;
40815;SDS011;26535;48.788;9.214;2023-04-03T05:14:36;5.13;;;2.05;;
40815;SDS011;26535;48.788;9.214;2023-04-03T05:17:05;3.25;;;1.80;;
40815;SDS011;26535;48.788;9.214;2023-04-03T05:19:34;3.45;;;1.50;;
40815;SDS011;26535;48.788;9.214;2023-04-03T05:22:02;3.08;;;1.80;;
40815;SDS011;26535;48.788;9.214;2023-04-03T05:24:28;5.28;;;1.95;;
40815;SDS011;26535;48.788;9.214;2023-04-03T05:26:54;3.88;;;1.90;;
40815;SDS011;26535;48.788;9.214;2023-04-03T05:29:20;4.45;;;2.00;;
40815;SDS011;26535;48.788;9.214;2023-04-03T05:31:50;3.78;;;2.17;;
40815;SDS011;26535;48.788;9.214;2023-04-03T05:34:16;3.80;;;1.90;;
40815;SDS011;26535;48.788;9.214;2023-04-03T05:36:44;5.75;;;2.20;;
40815;SDS011;26535;48.788;9.214;2023-04-03T05:39:12;3.53;;;2.35;;
40815;SDS011;26535;48.788;9.214;2023-04-03T05:41:40;3.42;;;1.90;;
40815;SDS011;26535;48.788;9.214;2023-04-03T05:44:06;3.97;;;2.20;;
40815;SDS011;26535;48.788;9.214;2023-04-03T05:46:32;5.45;;;2.50;;
40815;SDS011;26535;48.788;9.214;2023-04-03T05:49:02;3.92;;;2.13;;
40815;SDS011;26535;48.788;9.214;2023-04-03T05:54:26;6.32;;;2.42;;
40815;SDS011;26535;48.788;9.214;2023-04-03T05:57:04;8.90;;;2.50;;
40815;SDS011;26535;48.788;9.214;2023-04-03T05:59:30;4.93;;;1.90;;
40815;SDS011;26535;48.788;9.214;2023-04-03T06:01:57;6.32;;;2.20;;
40815;SDS011;26535;48.788;9.214;2023-04-03T06:04:23;7.22;;;2.25;;
40815;SDS011;26535;48.788;9.214;2023-04-03T06:06:50;4.63;;;2.05;;
40815;SDS011;26535;48.788;9.214;2023-04-03T06:11:46;3.97;;;1.73;;
40815;SDS011;26535;48.788;9.214;2023-04-03T06:14:13;4.25;;;2.10;;
40815;SDS011;26535;48.788;9.214;2023-04-03T06:16:39;4.15;;;1.90;;
40815;SDS011;26535;48.788;9.214;2023-04-03T06:19:07;5.80;;;2.20;;
40815;SDS011;26535;48.788;9.214;2023-04-03T06:21:34;2.88;;;1.60;;
40815;SDS011;26535;48.788;9.214;2023-04-03T06:24:05;4.18;;;2.15;;
40815;SDS011;26535;48.788;9.214;2023-04-03T06:26:32;5.05;;;2.10;;
40815;SDS011;26535;48.788;9.214;2023-04-03T06:28:59;3.90;;;2.10;;
40815;SDS011;26535;48.788;9.214;2023-04-03T06:31:25;4.38;;;2.15;;
40815;SDS011;26535;48.788;9.214;2023-04-03T06:33:51;4.68;;;1.92;;
40815;SDS011;26535;48.788;9.214;2023-04-03T06:36:18;6.65;;;2.10;;
40815;SDS011;26535;48.788;9.214;2023-04-03T06:38:45;4.95;;;1.92;;
40815;SDS011;26535;48.788;9.214;2023-04-03T06:41:11;4.55;;;1.90;;
40815;SDS011;26535;48.788;9.214;2023-04-03T06:43:37;8.15;;;2.20;;
40815;SDS011;26535;48.788;9.214;2023-04-03T06:46:03;5.07;;;1.95;;
40815;SDS011;26535;48.788;9.214;2023-04-03T06:48:30;3.17;;;1.90;;
40815;SDS011;26535;48.788;9.214;2023-04-03T06:50:56;5.20;;;2.00;;
40815;SDS011;26535;48.788;9.214;2023-04-03T06:53:22;3.92;;;1.98;;
40815;SDS011;26535;48.788;9.214;2023-04-03T06:55:48;5.45;;;1.92;;
40815;SDS011;26535;48.788;9.214;2023-04-03T06:58:13;3.85;;;1.90;;
40815;SDS011;26535;48.788;9.214;2023-04-03T07:00:40;4.57;;;2.00;;
40815;SDS011;26535;48.788;9.214;2023-04-03T07:03:06;6.97;;;2.20;;
40815;SDS011;26535;48.788;9.214;2023-04-03T07:05:32;6.15;;;1.90;;
40815;SDS011;26535;48.788;9.214;2023-04-03T07:07:58;4.78;;;2.40;;
40815;SDS011;26535;48.788;9.214;2023-04-03T07:10:24;4.43;;;1.73;;
40815;SDS011;26535;48.788;9.214;2023-04-03T07:12:50;4.15;;;2.03;;
40815;SDS011;26535;48.788;9.214;2023-04-03T07:15:16;4.10;;;1.95;;
40815;SDS011;26535;48.788;9.214;2023-04-03T07:17:42;4.65;;;2.05;;
40815;SDS011;26535;48.788;9.214;2023-04-03T07:20:08;6.65;;;2.08;;
40815;SDS011;26535;48.788;9.214;2023-04-03T07:22:34;4.50;;;1.92;;
40815;SDS011;26535;48.788;9.214;2023-04-03T07:25:03;6.43;;;2.30;;
40815;SDS011;26535;48.788;9.214;2023-04-03T07:27:33;7.07;;;1.85;;
40815;SDS011;26535;48.788;9.214;2023-04-03T07:29:59;4.15;;;1.90;;
40815;SDS011;26535;48.788;9.214;2023-04-03T07:32:28;3.55;;;1.90;;
40815;SDS011;26535;48.788;9.214;2023-04-03T07:34:54;4.20;;;1.98;;
40815;SDS011;26535;48.788;9.214;2023-04-03T07:37:20;4.85;;;2.05;;
40815;SDS011;26535;48.788;9.214;2023-04-03T07:39:45;6.90;;;1.92;;
40815;SDS011;26535;48.788;9.214;2023-04-03T07:42:11;3.00;;;1.52;;
40815;SDS011;26535;48.788;9.214;2023-04-03T07:44:38;3.80;;;2.00;;
40815;SDS011;26535;48.788;9.214;2023-04-03T07:47:03;3.22;;;1.67;;
40815;SDS011;26535;48.788;9.214;2023-04-03T07:49:29;3.95;;;1.90;;
40815;SDS011;26535;48.788;9.214;2023-04-03T07:51:56;4.15;;;1.70;;
40815;SDS011;26535;48.788;9.214;2023-04-03T07:54:22;4.30;;;1.77;;
40815;SDS011;26535;48.788;9.214;2023-04-03T07:56:47;4.03;;;1.77;;
40815;SDS011;26535;48.788;9.214;2023-04-03T07:59:13;5.35;;;2.05;;
40815;SDS011;26535;48.788;9.214;2023-04-03T08:01:39;4.30;;;1.83;;
40815;SDS011;26535;48.788;9.214;2023-04-03T08:04:05;5.78;;;1.95;;
40815;SDS011;26535;48.788;9.214;2023-04-03T08:06:31;5.00;;;1.50;;
40815;SDS011;26535;48.788;9.214;2023-04-03T08:09:02;4.05;;;1.85;;
40815;SDS011;26535;48.788;9.214;2023-04-03T08:11:29;3.63;;;2.05;;
40815;SDS011;26535;48.788;9.214;2023-04-03T08:13:56;3.63;;;1.75;;
40815;SDS011;26535;48.788;9.214;2023-04-03T08:16:22;4.00;;;1.90;;
40815;SDS011;26535;48.788;9.214;2023-04-03T08:18:53;4.38;;;2.00;;
40815;SDS011;26535;48.788;9.214;2023-04-03T08:21:19;4.00;;;1.60;;
40815;SDS011;26535;48.788;9.214;2023-04-03T08:23:47;5.78;;;1.85;;
40815;SDS011;26535;48.788;9.214;2023-04-03T08:26:16;3.72;;;1.83;;
40815;SDS011;26535;48.788;9.214;2023-04-03T08:28:43;4.93;;;2.08;;
40815;SDS011;26535;48.788;9.214;2023-04-03T08:31:10;4.72;;;1.98;;
40815;SDS011;26535;48.788;9.214;2023-04-03T08:33:38;5.78;;;2.20;;
40815;SDS011;26535;48.788;9.214;2023-04-03T08:36:06;6.57;;;2.28;;
40815;SDS011;26535;48.788;9.214;2023-04-03T08:38:40;6.20;;;1.92;;
40815;SDS011;26535;48.788;9.214;2023-04-03T08:41:29;5.55;;;1.70;;
40815;SDS011;26535;48.788;9.214;2023-04-03T08:49:59;5.18;;;1.85;;
40815;SDS011;26535;48.788;9.214;2023-04-03T08:58:30;4.30;;;1.80;;
40815;SDS011;26535;48.788;9.214;2023-04-03T09:03:32;5.35;;;1.80;;
40815;SDS011;26535;48.788;9.214;2023-04-03T09:06:06;5.22;;;1.77;;
40815;SDS011;26535;48.788;9.214;2023-04-03T09:11:16;3.40;;;1.60;;
40815;SDS011;26535;48.788;9.214;2023-04-03T09:13:54;6.28;;;1.80;;
40815;SDS011;26535;48.788;9.214;2023-04-03T09:16:39;5.93;;;2.03;;
40815;SDS011;26535;48.788;9.214;2023-04-03T09:21:53;4.50;;;1.55;;
40815;SDS011;26535;48.788;9.214;2023-04-03T09:24:41;2.72;;;1.45;;
40815;SDS011;26535;48.788;9.214;2023-04-03T09:27:10;6.90;;;1.92;;
40815;SDS011;26535;48.788;9.214;2023-04-03T09:29:41;6.78;;;1.70;;
40815;SDS011;26535;48.788;9.214;2023-04-03T09:32:28;3.42;;;1.70;;
40815;SDS011;26535;48.788;9.214;2023-04-03T09:34:56;3.00;;;1.60;;
40815;SDS011;26535;48.788;9.214;2023-04-03T09:38:00;4.78;;;1.50;;
40815;SDS011;26535;48.788;9.214;2023-04-03T09:49:03;3.65;;;1.48;;
40815;SDS011;26535;48.788;9.214;2023-04-03T09:51:37;4.72;;;1.63;;
40815;SDS011;26535;48.788;9.214;2023-04-03T09:54:25;3.20;;;1.50;;
40815;SDS011;26535;48.788;9.214;2023-04-03T09:56:50;7.60;;;1.80;;
40815;SDS011;26535;48.788;9.214;2023-04-03T09:59:18;6.90;;;1.92;;
40815;SDS011;26535;48.788;9.214;2023-04-03T10:02:02;5.88;;;1.95;;
40815;SDS011;26535;48.788;9.214;2023-04-03T10:04:44;3.92;;;1.90;;
40815;SDS011;26535;48.788;9.214;2023-04-03T10:12:40;5.32;;;1.70;;
40815;SDS011;26535;48.788;9.214;2023-04-03T10:15:12;4.65;;;1.58;;
40815;SDS011;26535;48.788;9.214;2023-04-03T10:18:00;4.68;;;1.70;;
40815;SDS011;26535;48.788;9.214;2023-04-03T10:20:48;2.95;;;1.48;;
40815;SDS011;26535;48.788;9.214;2023-04-03T10:23:33;4.47;;;1.33;;
40815;SDS011;26535;48.788;9.214;2023-04-03T10:26:29;3.88;;;1.55;;
40815;SDS011;26535;48.788;9.214;2023-04-03T10:40:35;3.97;;;1.45;;
40815;SDS011;26535;48.788;9.214;2023-04-03T10:43:12;4.85;;;1.67;;
40815;SDS011;26535;48.788;9.214;2023-04-03T10:46:11;3.80;;;1.65;;
40815;SDS011;26535;48.788;9.214;2023-04-03T10:48:53;3.42;;;1.50;;
40815;SDS011;26535;48.788;9.214;2023-04-03T10:51:41;4.13;;;1.58;;
40815;SDS011;26535;48.788;9.214;2023-04-03T10:56:53;3.65;;;1.13;;
40815;SDS011;26535;48.788;9.214;2023-04-03T10:59:40;3.88;;;1.33;;
40815;SDS011;26535;48.788;9.214;2023-04-03T11:05:01;4.15;;;1.58;;
40815;SDS011;26535;48.788;9.214;2023-04-03T11:07:42;2.97;;;1.23;;
40815;SDS011;26535;48.788;9.214;2023-04-03T11:15:56;5.18;;;1.52;;
40815;SDS011;26535;48.788;9.214;2023-04-03T11:21:18;4.57;;;1.08;;
40815;SDS011;26535;48.788;9.214;2023-04-03T11:24:03;7.50;;;1.52;;
40815;SDS011;26535;48.788;9.214;2023-04-03T11:26:39;6.45;;;1.40;;
40815;SDS011;26535;48.788;9.214;2023-04-03T11:29:13;4.03;;;1.30;;
40815;SDS011;26535;48.788;9.214;2023-04-03T11:34:34;4.18;;;1.30;;
40815;SDS011;26535;48.788;9.214;2023-04-03T11:37:12;4.45;;;1.38;;
40815;SDS011;26535;48.788;9.214;2023-04-03T11:40:36;2.90;;;1.48;;
40815;SDS011;26535;48.788;9.214;2023-04-03T11:42:52;3.05;;;1.35;;
40815;SDS011;26535;48.788;9.214;2023-04-03T11:45:36;4.05;;;1.55;;
40815;SDS011;26535;48.788;9.214;2023-04-03T11:50:44;3.42;;;1.27;;
40815;SDS011;26535;48.788;9.214;2023-04-03T11:58:21;5.28;;;1.27;;
40815;SDS011;26535;48.788;9.214;2023-04-03T12:00:52;3.65;;;1.35;;
40815;SDS011;26535;48.788;9.214;2023-04-03T12:05:48;3.83;;;1.35;;
40815;SDS011;26535;48.788;9.214;2023-04-03T12:08:25;4.60;;;1.75;;
40815;SDS011;26535;48.788;9.214;2023-04-03T12:16:24;4.13;;;1.70;;
40815;SDS011;26535;48.788;9.214;2023-04-03T12:21:21;4.60;;;1.50;;
40815;SDS011;26535;48.788;9.214;2023-04-03T12:26:43;2.97;;;1.20;;
40815;SDS011;26535;48.788;9.214;2023-04-03T12:38:37;4.35;;;1.20;;
40815;SDS011;26535;48.788;9.214;2023-04-03T12:47:07;3.25;;;1.30;;
40815;SDS011;26535;48.788;9.214;2023-04-03T12:49:44;5.25;;;1.60;;
40815;SDS011;26535;48.788;9.214;2023-04-03T12:52:16;3.30;;;1.30;;
40815;SDS011;26535;48.788;9.214;2023-04-03T12:55:00;3.58;;;1.45;;
40815;SDS011;26535;48.788;9.214;2023-04-03T12:57:32;3.83;;;1.40;;
40815;SDS011;26535;48.788;9.214;2023-04-03T12:59:58;4.47;;;1.67;;
40815;SDS011;26535;48.788;9.214;2023-04-03T13:05:35;3.85;;;1.20;;
40815;SDS011;26535;48.788;9.214;2023-04-03T13:08:03;4.78;;;1.27;;
40815;SDS011;26535;48.788;9.214;2023-04-03T13:10:32;3.80;;;1.30;;
40815;SDS011;26535;48.788;9.214;2023-04-03T13:13:13;4.97;;;1.35;;
40815;SDS011;26535;48.788;9.214;2023-04-03T13:15:47;3.03;;;1.33;;
40815;SDS011;26535;48.788;9.214;2023-04-03T13:18:24;3.53;;;1.30;;
40815;SDS011;26535;48.788;9.214;2023-04-03T13:20:51;6.22;;;1.50;;
40815;SDS011;26535;48.788;9.214;2023-04-03T13:23:17;4.13;;;1.02;;
40815;SDS011;26535;48.788;9.214;2023-04-03T13:25:48;4.13;;;1.70;;
40815;SDS011;26535;48.788;9.214;2023-04-03T13:28:17;2.72;;;1.30;;
40815;SDS011;26535;48.788;9.214;2023-04-03T13:31:03;3.33;;;1.10;;
40815;SDS011;26535;48.788;9.214;2023-04-03T13:33:31;4.22;;;1.65;;
40815;SDS011;26535;48.788;9.214;2023-04-03T13:38:33;3.95;;;1.25;;
40815;SDS011;26535;48.788;9.214;2023-04-03T13:41:03;3.90;;;1.20;;
40815;SDS011;26535;48.788;9.214;2023-04-03T13:43:45;3.05;;;1.13;;
40815;SDS011;26535;48.788;9.214;2023-04-03T13:51:06;2.90;;;1.30;;
40815;SDS011;26535;48.788;9.214;2023-04-03T13:53:45;2.90;;;1.10;;
40815;SDS011;26535;48.788;9.214;2023-04-03T13:56:30;2.97;;;1.20;;
40815;SDS011;26535;48.788;9.214;2023-04-03T13:58:58;4.97;;;1.50;;
40815;SDS011;26535;48.788;9.214;2023-04-03T14:01:33;3.10;;;1.20;;
40815;SDS011;26535;48.788;9.214;2023-04-03T14:04:23;4.55;;;1.20;;
40815;SDS011;26535;48.788;9.214;2023-04-03T14:06:51;2.70;;;1.40;;
40815;SDS011;26535;48.788;9.214;2023-04-03T14:09:18;3.47;;;1.30;;
40815;SDS011;26535;48.788;9.214;2023-04-03T14:11:46;4.93;;;1.50;;
40815;SDS011;26535;48.788;9.214;2023-04-03T14:14:23;3.33;;;1.17;;
40815;SDS011;26535;48.788;9.214;2023-04-03T14:16:56;4.28;;;1.58;;
40815;SDS011;26535;48.788;9.214;2023-04-03T14:19:26;5.50;;;1.75;;
40815;SDS011;26535;48.788;9.214;2023-04-03T14:21:57;3.13;;;1.20;;
40815;SDS011;26535;48.788;9.214;2023-04-03T14:24:24;3.77;;;1.90;;
40815;SDS011;26535;48.788;9.214;2023-04-03T14:26:53;7.07;;;1.87;;
40815;SDS011;26535;48.788;9.214;2023-04-03T14:29:20;3.03;;;1.20;;
40815;SDS011;26535;48.788;9.214;2023-04-03T14:31:47;3.50;;;1.35;;
40815;SDS011;26535;48.788;9.214;2023-04-03T14:34:14;3.50;;;1.33;;
40815;SDS011;26535;48.788;9.214;2023-04-03T14:36:41;3.53;;;1.20;;
40815;SDS011;26535;48.788;9.214;2023-04-03T14:39:10;4.15;;;0.95;;
40815;SDS011;26535;48.788;9.214;2023-04-03T14:41:42;4.65;;;1.25;;
40815;SDS011;26535;48.788;9.214;2023-04-03T14:44:08;4.13;;;1.75;;
40815;SDS011;26535;48.788;9.214;2023-04-03T14:46:35;2.47;;;1.10;;
40815;SDS011;26535;48.788;9.214;2023-04-03T14:49:02;3.80;;;1.20;;
40815;SDS011;26535;48.788;9.214;2023-04-03T14:51:33;3.63;;;1.30;;
40815;SDS011;26535;48.788;9.214;2023-04-03T14:53:59;2.85;;;1.20;;
40815;SDS011;26535;48.788;9.214;2023-04-03T14:56:27;3.72;;;1.60;;
40815;SDS011;26535;48.788;9.214;2023-04-03T14:58:58;3.65;;;1.70;;
40815;SDS011;26535;48.788;9.214;2023-04-03T15:01:27;5.72;;;1.70;;
40815;SDS011;26535;48.788;9.214;2023-04-03T15:03:53;2.70;;;1.17;;
40815;SDS011;26535;48.788;9.214;2023-04-03T15:06:20;3.83;;;1.30;;
40815;SDS011;26535;48.788;9.214;2023-04-03T15:08:55;3.53;;;1.40;;
40815;SDS011;26535;48.788;9.214;2023-04-03T15:11:21;5.18;;;1.60;;
40815;SDS011;26535;48.788;9.214;2023-04-03T15:13:46;3.38;;;1.30;;
40815;SDS011;26535;48.788;9.214;2023-04-03T15:16:14;4.72;;;1.58;;
40815;SDS011;26535;48.788;9.214;2023-04-03T15:18:42;2.92;;;0.90;;
40815;SDS011;26535;48.788;9.214;2023-04-03T15:21:10;4.63;;;1.10;;
40815;SDS011;26535;48.788;9.214;2023-04-03T15:23:38;2.58;;;1.20;;
40815;SDS011;26535;48.788;9.214;2023-04-03T15:26:05;4.97;;;1.15;;
40815;SDS011;26535;48.788;9.214;2023-04-03T15:28:32;3.63;;;0.95;;
40815;SDS011;26535;48.788;9.214;2023-04-03T15:31:01;3.33;;;1.20;;
40815;SDS011;26535;48.788;9.214;2023-04-03T15:33:27;3.22;;;1.23;;
40815;SDS011;26535;48.788;9.214;2023-04-03T15:35:53;3.17;;;1.13;;
40815;SDS011;26535;48.788;9.214;2023-04-03T15:38:19;3.67;;;1.10;;
40815;SDS011;26535;48.788;9.214;2023-04-03T15:40:45;4.03;;;1.33;;
40815;SDS011;26535;48.788;9.214;2023-04-03T15:43:15;5.07;;;1.50;;
40815;SDS011;26535;48.788;9.214;2023-04-03T15:45:46;3.15;;;1.40;;
40815;SDS011;26535;48.788;9.214;2023-04-03T15:48:13;4.60;;;1.50;;
40815;SDS011;26535;48.788;9.214;2023-04-03T15:50:39;2.80;;;1.08;;
40815;SDS011;26535;48.788;9.214;2023-04-03T15:53:05;3.25;;;1.08;;
40815;SDS011;26535;48.788;9.214;2023-04-03T15:55:35;3.60;;;1.20;;
40815;SDS011;26535;48.788;9.214;2023-04-03T15:58:06;3.13;;;1.00;;
40815;SDS011;26535;48.788;9.214;2023-04-03T16:00:36;3.15;;;1.00;;
40815;SDS011;26535;48.788;9.214;2023-04-03T16:03:07;3.22;;;1.50;;
40815;SDS011;26535;48.788;9.214;2023-04-03T16:05:36;3.47;;;1.20;;
40815;SDS011;26535;48.788;9.214;2023-04-03T16:08:06;4.72;;;1.40;;
40815;SDS011;26535;48.788;9.214;2023-04-03T16:10:36;3.08;;;1.00;;
40815;SDS011;26535;48.788;9.214;2023-04-03T16:13:13;2.40;;;0.90;;
40815;SDS011;26535;48.788;9.214;2023-04-03T16:15:40;4.13;;;1.00;;
40815;SDS011;26535;48.788;9.214;2023-04-03T16:18:09;3.58;;;1.00;;
40815;SDS011;26535;48.788;9.214;2023-04-03T16:20:39;2.63;;;1.00;;
40815;SDS011;26535;48.788;9.214;2023-04-03T16:23:12;2.45;;;0.80;;
40815;SDS011;26535;48.788;9.214;2023-04-03T16:25:42;3.70;;;1.30;;
40815;SDS011;26535;48.788;9.214;2023-04-03T16:28:20;2.72;;;1.13;;
40815;SDS011;26535;48.788;9.214;2023-04-03T16:30:52;2.75;;;1.20;;
40815;SDS011;26535;48.788;9.214;2023-04-03T16:33:18;2.80;;;0.98;;
40815;SDS011;26535;48.788;9.214;2023-04-03T16:35:46;3.80;;;1.55;;
40815;SDS011;26535;48.788;9.214;2023-04-03T16:38:13;3.65;;;1.77;;
40815;SDS011;26535;48.788;9.214;2023-04-03T16:40:50;3.85;;;1.20;;
40815;SDS011;26535;48.788;9.214;2023-04-03T16:43:22;3.33;;;1.40;;
40815;SDS011;26535;48.788;9.214;2023-04-03T16:45:48;3.00;;;1.20;;
40815;SDS011;26535;48.788;9.214;2023-04-03T16:48:19;3.35;;;1.27;;
40815;SDS011;26535;48.788;9.214;2023-04-03T16:50:47;4.95;;;1.55;;
40815;SDS011;26535;48.788;9.214;2023-04-03T16:53:16;2.78;;;1.40;;
40815;SDS011;26535;48.788;9.214;2023-04-03T16:55:45;4.93;;;1.15;;
40815;SDS011;26535;48.788;9.214;2023-04-03T16:58:20;3.47;;;1.15;;
40815;SDS011;26535;48.788;9.214;2023-04-03T17:00:45;2.83;;;1.17;;
40815;SDS011;26535;48.788;9.214;2023-04-03T17:03:22;3.60;;;1.27;;
40815;SDS011;26535;48.788;9.214;2023-04-03T17:05:57;3.88;;;1.50;;
40815;SDS011;26535;48.788;9.214;2023-04-03T17:08:23;2.70;;;1.30;;
40815;SDS011;26535;48.788;9.214;2023-04-03T17:10:51;4.72;;;1.63;;
40815;SDS011;26535;48.788;9.214;2023-04-03T17:13:24;3.40;;;1.20;;
40815;SDS011;26535;48.788;9.214;2023-04-03T17:15:57;3.83;;;1.10;;
40815;SDS011;26535;48.788;9.214;2023-04-03T17:18:26;2.60;;;1.15;;
40815;SDS011;26535;48.788;9.214;2023-04-03T17:20:54;3.77;;;1.40;;
40815;SDS011;26535;48.788;9.214;2023-04-03T17:23:24;3.60;;;1.40;;
40815;SDS011;26535;48.788;9.214;2023-04-03T17:25:54;3.03;;;1.42;;
40815;SDS011;26535;48.788;9.214;2023-04-03T17:28:21;3.97;;;1.27;;
40815;SDS011;26535;48.788;9.214;2023-04-03T17:30:53;3.38;;;1.20;;
40815;SDS011;26535;48.788;9.214;2023-04-03T17:33:23;3.63;;;1.33;;
40815;SDS011;26535;48.788;9.214;2023-04-03T17:35:55;3.60;;;1.67;;
40815;SDS011;26535;48.788;9.214;2023-04-03T17:38:22;3.97;;;1.75;;
40815;SDS011;26535;48.788;9.214;2023-04-03T17:40:48;4.72;;;2.13;;
40815;SDS011;26535;48.788;9.214;2023-04-03T17:43:17;7.43;;;1.90;;
40815;SDS011;26535;48.788;9.214;2023-04-03T17:45:43;3.13;;;1.70;;
40815;SDS011;26535;48.788;9.214;2023-04-03T17:48:08;4.20;;;1.52;;
40815;SDS011;26535;48.788;9.214;2023-04-03T17:50:35;4.80;;;1.80;;
40815;SDS011;26535;48.788;9.214;2023-04-03T17:53:01;2.78;;;1.50;;
40815;SDS011;26535;48.788;9.214;2023-04-03T17:55:27;4.38;;;1.60;;
40815;SDS011;26535;48.788;9.214;2023-04-03T17:57:53;3.38;;;1.50;;
40815;SDS011;26535;48.788;9.214;2023-04-03T18:00:19;4.82;;;1.83;;
40815;SDS011;26535;48.788;9.214;2023-04-03T18:02:45;3.35;;;1.70;;
40815;SDS011;26535;48.788;9.214;2023-04-03T18:05:11;3.78;;;1.80;;
40815;SDS011;26535;48.788;9.214;2023-04-03T18:07:36;5.00;;;1.75;;
40815;SDS011;26535;48.788;9.214;2023-04-03T18:10:07;3.50;;;1.60;;
40815;SDS011;26535;48.788;9.214;2023-04-03T18:12:39;4.25;;;1.70;;
40815;SDS011;26535;48.788;9.214;2023-04-03T18:15:06;3.67;;;1.90;;
40815;SDS011;26535;48.788;9.214;2023-04-03T18:17:32;3.00;;;1.35;;
40815;SDS011;26535;48.788;9.214;2023-04-03T18:19:58;4.30;;;1.80;;
40815;SDS011;26535;48.788;9.214;2023-04-03T18:22:24;2.75;;;1.60;;
40815;SDS011;26535;48.788;9.214;2023-04-03T18:24:51;4.20;;;1.55;;
40815;SDS011;26535;48.788;9.214;2023-04-03T18:27:18;5.30;;;1.60;;
40815;SDS011;26535;48.788;9.214;2023-04-03T18:29:49;3.53;;;1.52;;
40815;SDS011;26535;48.788;9.214;2023-04-03T18:32:18;2.72;;;1.60;;
40815;SDS011;26535;48.788;9.214;2023-04-03T18:34:46;3.38;;;1.60;;
40815;SDS011;26535;48.788;9.214;2023-04-03T18:37:14;4.45;;;1.80;;
40815;SDS011;26535;48.788;9.214;2023-04-03T18:39:41;3.70;;;1.60;;
40815;SDS011;26535;48.788;9.214;2023-04-03T18:42:14;4.30;;;1.77;;
40815;SDS011;26535;48.788;9.214;2023-04-03T18:45:01;2.92;;;1.70;;
40815;SDS011;26535;48.788;9.214;2023-04-03T18:47:32;2.38;;;1.40;;
40815;SDS011;26535;48.788;9.214;2023-04-03T18:50:03;4.72;;;1.90;;
40815;SDS011;26535;48.788;9.214;2023-04-03T18:52:30;5.82;;;2.22;;
40815;SDS011;26535;48.788;9.214;2023-04-03T18:54:56;5.75;;;2.15;;
40815;SDS011;26535;48.788;9.214;2023-04-03T18:57:35;4.07;;;1.83;;
40815;SDS011;26535;48.788;9.214;2023-04-03T19:00:02;4.35;;;2.22;;
40815;SDS011;26535;48.788;9.214;2023-04-03T19:02:29;4.22;;;1.88;;
40815;SDS011;26535;48.788;9.214;2023-04-03T19:04:55;4.35;;;1.63;;
40815;SDS011;26535;48.788;9.214;2023-04-03T19:07:21;4.32;;;1.80;;
40815;SDS011;26535;48.788;9.214;2023-04-03T19:09:46;3.40;;;1.90;;
40815;SDS011;26535;48.788;9.214;2023-04-03T19:12:16;3.78;;;1.85;;
40815;SDS011;26535;48.788;9.214;2023-04-03T19:14:45;3.40;;;1.67;;
40815;SDS011;26535;48.788;9.214;2023-04-03T19:17:10;6.18;;;2.00;;
40815;SDS011;26535;48.788;9.214;2023-04-03T19:19:39;4.95;;;1.92;;
40815;SDS011;26535;48.788;9.214;2023-04-03T19:22:05;3.67;;;1.48;;
40815;SDS011;26535;48.788;9.214;2023-04-03T19:24:32;4.03;;;1.77;;
40815;SDS011;26535;48.788;9.214;2023-04-03T19:26:58;5.75;;;1.50;;
40815;SDS011;26535;48.788;9.214;2023-04-03T19:29:27;4.07;;;1.55;;
40815;SDS011;26535;48.788;9.214;2023-04-03T19:31:55;3.97;;;1.83;;
40815;SDS011;26535;48.788;9.214;2023-04-03T19:34:21;4.68;;;1.80;;
40815;SDS011;26535;48.788;9.214;2023-04-03T19:36:53;3.85;;;1.88;;
40815;SDS011;26535;48.788;9.214;2023-04-03T19:39:26;3.45;;;1.98;;
40815;SDS011;26535;48.788;9.214;2023-04-03T19:41:54;5.05;;;1.85;;
40815;SDS011;26535;48.788;9.214;2023-04-03T19:44:20;5.45;;;1.85;;
40815;SDS011;26535;48.788;9.214;2023-04-03T19:46:48;3.35;;;1.85;;
40815;SDS011;26535;48.788;9.214;2023-04-03T19:49:14;3.15;;;1.45;;
40815;SDS011;26535;48.788;9.214;2023-04-03T19:51:40;3.97;;;2.03;;
40815;SDS011;26535;48.788;9.214;2023-04-03T19:54:06;5.18;;;1.83;;
40815;SDS011;26535;48.788;9.214;2023-04-03T19:56:32;4.65;;;1.73;;
40815;SDS011;26535;48.788;9.214;2023-04-03T19:59:08;4.15;;;1.70;;
40815;SDS011;26535;48.788;9.214;2023-04-03T20:01:34;4.72;;;1.75;;
40815;SDS011;26535;48.788;9.214;2023-04-03T20:04:00;3.55;;;1.70;;
40815;SDS011;26535;48.788;9.214;2023-04-03T20:06:29;4.43;;;1.80;;
40815;SDS011;26535;48.788;9.214;2023-04-03T20:08:56;3.72;;;1.80;;
40815;SDS011;26535;48.788;9.214;2023-04-03T20:11:22;6.13;;;1.60;;
40815;SDS011;26535;48.788;9.214;2023-04-03T20:13:49;3.63;;;1.60;;
40815;SDS011;26535;48.788;9.214;2023-04-03T20:16:15;4.45;;;1.83;;
40815;SDS011;26535;48.788;9.214;2023-04-03T20:18:42;3.17;;;1.63;;
40815;SDS011;26535;48.788;9.214;2023-04-03T20:21:08;2.35;;;1.23;;
40815;SDS011;26535;48.788;9.214;2023-04-03T20:23:35;6.05;;;1.40;;
40815;SDS011;26535;48.788;9.214;2023-04-03T20:26:02;3.03;;;1.48;;
40815;SDS011;26535;48.788;9.214;2023-04-03T20:28:30;5.07;;;1.40;;
40815;SDS011;26535;48.788;9.214;2023-04-03T20:30:56;7.03;;;1.73;;
40815;SDS011;26535;48.788;9.214;2023-04-03T20:33:23;5.00;;;1.70;;
40815;SDS011;26535;48.788;9.214;2023-04-03T20:35:54;4.93;;;1.50;;
40815;SDS011;26535;48.788;9.214;2023-04-03T20:38:21;4.25;;;1.48;;
40815;SDS011;26535;48.788;9.214;2023-04-03T20:40:47;4.20;;;1.60;;
40815;SDS011;26535;48.788;9.214;2023-04-03T20:43:14;3.22;;;1.70;;
40815;SDS011;26535;48.788;9.214;2023-04-03T20:45:41;4.55;;;1.65;;
40815;SDS011;26535;48.788;9.214;2023-04-03T20:48:07;2.95;;;1.90;;
40815;SDS011;26535;48.788;9.214;2023-04-03T20:50:33;3.50;;;1.60;;
40815;SDS011;26535;48.788;9.214;2023-04-03T20:53:00;3.50;;;1.48;;
40815;SDS011;26535;48.788;9.214;2023-04-03T20:55:26;3.53;;;1.58;;
40815;SDS011;26535;48.788;9.214;2023-04-03T20:57:52;7.28;;;1.83;;
40815;SDS011;26535;48.788;9.214;2023-04-03T21:00:22;4.05;;;1.45;;
40815;SDS011;26535;48.788;9.214;2023-04-03T21:02:49;3.67;;;1.52;;
40815;SDS011;26535;48.788;9.214;2023-04-03T21:05:15;3.75;;;1.60;;
40815;SDS011;26535;48.788;9.214;2023-04-03T21:19:27;3.55;;;1.40;;
40815;SDS011;26535;48.788;9.214;2023-04-03T21:21:52;4.45;;;1.20;;
40815;SDS011;26535;48.788;9.214;2023-04-03T21:24:19;5.75;;;1.20;;
40815;SDS011;26535;48.788;9.214;2023-04-03T21:26:46;3.40;;;1.10;;
40815;SDS011;26535;48.788;9.214;2023-04-03T21:29:12;3.15;;;1.23;;
40815;SDS011;26535;48.788;9.214;2023-04-03T21:34:17;6.25;;;1.40;;
40815;SDS011;26535;48.788;9.214;2023-04-03T21:36:44;4.10;;;1.10;;
40815;SDS011;26535;48.788;9.214;2023-04-03T21:39:10;3.08;;;1.10;;
40815;SDS011;26535;48.788;9.214;2023-04-03T21:41:39;2.22;;;0.90;;
40815;SDS011;26535;48.788;9.214;2023-04-03T21:44:05;4.43;;;1.00;;
40815;SDS011;26535;48.788;9.214;2023-04-03T21:46:31;3.97;;;1.08;;
40815;SDS011;26535;48.788;9.214;2023-04-03T21:48:57;4.07;;;1.30;;
40815;SDS011;26535;48.788;9.214;2023-04-03T21:51:23;3.30;;;1.20;;
40815;SDS011;26535;48.788;9.214;2023-04-03T21:53:52;4.47;;;1.05;;
40815;SDS011;26535;48.788;9.214;2023-04-03T21:56:18;4.18;;;1.23;;
40815;SDS011;26535;48.788;9.214;2023-04-03T21:58:46;4.03;;;1.20;;
40815;SDS011;26535;48.788;9.214;2023-04-03T22:01:13;3.78;;;1.30;;
40815;SDS011;26535;48.788;9.214;2023-04-03T22:03:40;2.80;;;1.15;;
40815;SDS011;26535;48.788;9.214;2023-04-03T22:06:08;4.53;;;1.40;;
40815;SDS011;26535;48.788;9.214;2023-04-03T22:08:35;3.13;;;1.17;;
40815;SDS011;26535;48.788;9.214;2023-04-03T22:11:02;2.15;;;1.00;;
40815;SDS011;26535;48.788;9.214;2023-04-03T22:13:33;3.55;;;1.30;;